sensor_id;sensor_type;location;lat;lon;timestamp;temperature;humidity
59556;DHT22;45374;52.746;6.304;2024-01-30T00:01:24;5.10;99.90
59556;DHT22;45374;52.746;6.304;2024-01-30T00:03:50;5.10;99.90
59556;DHT22;45374;52.746;6.304;2024-01-30T00:06:19;5.10;99.90
59556;DHT22;45374;52.746;6.304;2024-01-30T00:08:46;5.10;99.90
59556;DHT22;45374;52.746;6.304;2024-01-30T00:11:14;5.10;99.90
59556;DHT22;45374;52.746;6.304;2024-01-30T00:13:40;5.10;99.90
59556;DHT22;45374;52.746;6.304;2024-01-30T00:16:05;5.00;99.90
59556;DHT22;45374;52.746;6.304;2024-01-30T00:18:31;5.00;99.90
59556;DHT22;45374;52.746;6.304;2024-01-30T00:20:56;5.00;99.90
59556;DHT22;45374;52.746;6.304;2024-01-30T00:23:22;5.00;99.90
59556;DHT22;45374;52.746;6.304;2024-01-30T00:25:47;5.00;99.90
59556;DHT22;45374;52.746;6.304;2024-01-30T00:28:13;4.90;99.90
59556;DHT22;45374;52.746;6.304;2024-01-30T00:30:39;4.90;99.90
59556;DHT22;45374;52.746;6.304;2024-01-30T00:33:04;4.90;99.90
59556;DHT22;45374;52.746;6.304;2024-01-30T00:35:30;4.90;99.90
59556;DHT22;45374;52.746;6.304;2024-01-30T00:37:55;4.90;99.90
59556;DHT22;45374;52.746;6.304;2024-01-30T00:40:21;4.80;99.90
59556;DHT22;45374;52.746;6.304;2024-01-30T00:42:46;4.80;99.90
59556;DHT22;45374;52.746;6.304;2024-01-30T00:45:14;4.80;99.90
59556;DHT22;45374;52.746;6.304;2024-01-30T00:47:39;4.80;99.90
59556;DHT22;45374;52.746;6.304;2024-01-30T00:50:05;4.80;99.90
59556;DHT22;45374;52.746;6.304;2024-01-30T00:52:31;4.80;99.90
59556;DHT22;45374;52.746;6.304;2024-01-30T00:54:58;4.70;99.90
59556;DHT22;45374;52.746;6.304;2024-01-30T00:57:24;4.70;99.90
59556;DHT22;45374;52.746;6.304;2024-01-30T00:59:49;4.60;99.90
59556;DHT22;45374;52.746;6.304;2024-01-30T01:02:15;4.60;99.90
59556;DHT22;45374;52.746;6.304;2024-01-30T01:04:42;4.60;99.90
59556;DHT22;45374;52.746;6.304;2024-01-30T01:07:08;4.60;99.90
59556;DHT22;45374;52.746;6.304;2024-01-30T01:09:34;4.60;99.90
59556;DHT22;45374;52.746;6.304;2024-01-30T01:11:59;4.50;99.90
59556;DHT22;45374;52.746;6.304;2024-01-30T01:14:25;4.50;99.90
59556;DHT22;45374;52.746;6.304;2024-01-30T01:16:50;4.50;99.90
59556;DHT22;45374;52.746;6.304;2024-01-30T01:19:16;4.50;99.90
59556;DHT22;45374;52.746;6.304;2024-01-30T01:21:42;4.40;99.90
59556;DHT22;45374;52.746;6.304;2024-01-30T01:24:07;4.40;99.90
59556;DHT22;45374;52.746;6.304;2024-01-30T01:26:33;4.40;99.90
59556;DHT22;45374;52.746;6.304;2024-01-30T01:28:59;4.40;99.90
59556;DHT22;45374;52.746;6.304;2024-01-30T01:31:24;4.40;99.90
59556;DHT22;45374;52.746;6.304;2024-01-30T01:33:50;4.40;99.90
59556;DHT22;45374;52.746;6.304;2024-01-30T01:36:16;4.50;99.90
59556;DHT22;45374;52.746;6.304;2024-01-30T01:38:41;4.40;99.90
59556;DHT22;45374;52.746;6.304;2024-01-30T01:41:07;4.40;99.90
59556;DHT22;45374;52.746;6.304;2024-01-30T01:43:32;4.40;99.90
59556;DHT22;45374;52.746;6.304;2024-01-30T01:45:58;4.40;99.90
59556;DHT22;45374;52.746;6.304;2024-01-30T01:48:24;4.40;99.90
59556;DHT22;45374;52.746;6.304;2024-01-30T01:50:50;4.40;99.90
59556;DHT22;45374;52.746;6.304;2024-01-30T01:53:16;4.40;99.90
59556;DHT22;45374;52.746;6.304;2024-01-30T01:55:42;4.40;99.90
59556;DHT22;45374;52.746;6.304;2024-01-30T01:58:08;4.40;99.90
59556;DHT22;45374;52.746;6.304;2024-01-30T02:00:36;4.40;99.90
59556;DHT22;45374;52.746;6.304;2024-01-30T02:03:05;4.40;99.90
59556;DHT22;45374;52.746;6.304;2024-01-30T02:05:32;4.40;99.90
59556;DHT22;45374;52.746;6.304;2024-01-30T02:07:57;4.40;99.90
59556;DHT22;45374;52.746;6.304;2024-01-30T02:10:23;4.40;99.90
59556;DHT22;45374;52.746;6.304;2024-01-30T02:12:49;4.40;99.90
59556;DHT22;45374;52.746;6.304;2024-01-30T02:15:15;4.40;99.90
59556;DHT22;45374;52.746;6.304;2024-01-30T02:17:41;4.40;99.90
59556;DHT22;45374;52.746;6.304;2024-01-30T02:20:06;4.40;99.90
59556;DHT22;45374;52.746;6.304;2024-01-30T02:22:34;4.40;99.90
59556;DHT22;45374;52.746;6.304;2024-01-30T02:25:00;4.40;99.90
59556;DHT22;45374;52.746;6.304;2024-01-30T02:27:26;4.40;99.90
59556;DHT22;45374;52.746;6.304;2024-01-30T02:29:52;4.40;99.90
59556;DHT22;45374;52.746;6.304;2024-01-30T02:32:17;4.50;99.90
59556;DHT22;45374;52.746;6.304;2024-01-30T02:34:43;4.50;99.90
59556;DHT22;45374;52.746;6.304;2024-01-30T02:37:08;4.50;99.90
59556;DHT22;45374;52.746;6.304;2024-01-30T02:39:34;4.50;99.90
59556;DHT22;45374;52.746;6.304;2024-01-30T02:41:59;4.50;99.90
59556;DHT22;45374;52.746;6.304;2024-01-30T02:44:25;4.50;99.90
59556;DHT22;45374;52.746;6.304;2024-01-30T02:46:51;4.50;99.90
59556;DHT22;45374;52.746;6.304;2024-01-30T02:49:16;4.50;99.90
59556;DHT22;45374;52.746;6.304;2024-01-30T02:51:42;4.50;99.90
59556;DHT22;45374;52.746;6.304;2024-01-30T02:54:07;4.50;99.90
59556;DHT22;45374;52.746;6.304;2024-01-30T02:56:33;4.50;99.90
59556;DHT22;45374;52.746;6.304;2024-01-30T02:58:58;4.60;99.90
59556;DHT22;45374;52.746;6.304;2024-01-30T03:01:24;4.50;99.90
59556;DHT22;45374;52.746;6.304;2024-01-30T03:03:50;4.60;99.90
59556;DHT22;45374;52.746;6.304;2024-01-30T03:06:15;4.60;99.90
59556;DHT22;45374;52.746;6.304;2024-01-30T03:08:43;4.60;99.90
59556;DHT22;45374;52.746;6.304;2024-01-30T03:11:08;4.60;99.90
59556;DHT22;45374;52.746;6.304;2024-01-30T03:13:34;4.60;99.90
59556;DHT22;45374;52.746;6.304;2024-01-30T03:15:59;4.60;99.90
59556;DHT22;45374;52.746;6.304;2024-01-30T03:18:25;4.70;99.90
59556;DHT22;45374;52.746;6.304;2024-01-30T03:20:50;4.70;99.90
59556;DHT22;45374;52.746;6.304;2024-01-30T03:23:16;4.80;99.90
59556;DHT22;45374;52.746;6.304;2024-01-30T03:25:41;4.80;99.90
59556;DHT22;45374;52.746;6.304;2024-01-30T03:28:07;4.80;99.90
59556;DHT22;45374;52.746;6.304;2024-01-30T03:30:34;4.80;99.90
59556;DHT22;45374;52.746;6.304;2024-01-30T03:32:59;4.90;99.90
59556;DHT22;45374;52.746;6.304;2024-01-30T03:35:25;4.90;99.90
59556;DHT22;45374;52.746;6.304;2024-01-30T03:37:50;5.00;99.90
59556;DHT22;45374;52.746;6.304;2024-01-30T03:40:16;5.00;99.90
59556;DHT22;45374;52.746;6.304;2024-01-30T03:42:42;5.10;99.90
59556;DHT22;45374;52.746;6.304;2024-01-30T03:45:08;5.20;99.90
59556;DHT22;45374;52.746;6.304;2024-01-30T03:47:33;5.20;99.90
59556;DHT22;45374;52.746;6.304;2024-01-30T03:49:59;5.30;99.90
59556;DHT22;45374;52.746;6.304;2024-01-30T03:52:24;5.40;99.90
59556;DHT22;45374;52.746;6.304;2024-01-30T03:54:50;5.40;99.90
59556;DHT22;45374;52.746;6.304;2024-01-30T03:57:15;5.40;99.90
59556;DHT22;45374;52.746;6.304;2024-01-30T03:59:44;5.50;99.90
59556;DHT22;45374;52.746;6.304;2024-01-30T04:02:10;5.50;99.90
59556;DHT22;45374;52.746;6.304;2024-01-30T04:04:37;5.50;99.90
59556;DHT22;45374;52.746;6.304;2024-01-30T04:07:02;5.50;99.90
59556;DHT22;45374;52.746;6.304;2024-01-30T04:09:28;5.60;99.90
59556;DHT22;45374;52.746;6.304;2024-01-30T04:11:54;5.60;99.90
59556;DHT22;45374;52.746;6.304;2024-01-30T04:14:19;5.60;99.90
59556;DHT22;45374;52.746;6.304;2024-01-30T04:16:45;5.60;99.90
59556;DHT22;45374;52.746;6.304;2024-01-30T04:19:10;5.60;99.90
59556;DHT22;45374;52.746;6.304;2024-01-30T04:21:36;5.70;99.90
59556;DHT22;45374;52.746;6.304;2024-01-30T04:24:02;5.60;99.90
59556;DHT22;45374;52.746;6.304;2024-01-30T04:26:27;5.60;99.90
59556;DHT22;45374;52.746;6.304;2024-01-30T04:28:53;5.70;99.90
59556;DHT22;45374;52.746;6.304;2024-01-30T04:31:18;5.70;99.90
59556;DHT22;45374;52.746;6.304;2024-01-30T04:33:44;5.60;99.90
59556;DHT22;45374;52.746;6.304;2024-01-30T04:36:10;5.70;99.90
59556;DHT22;45374;52.746;6.304;2024-01-30T04:38:37;5.70;99.90
59556;DHT22;45374;52.746;6.304;2024-01-30T04:41:04;5.70;99.90
59556;DHT22;45374;52.746;6.304;2024-01-30T04:43:29;5.70;99.90
59556;DHT22;45374;52.746;6.304;2024-01-30T04:45:55;5.70;99.90
59556;DHT22;45374;52.746;6.304;2024-01-30T04:48:21;5.70;99.90
59556;DHT22;45374;52.746;6.304;2024-01-30T04:50:46;5.80;99.90
59556;DHT22;45374;52.746;6.304;2024-01-30T04:53:12;5.80;99.90
59556;DHT22;45374;52.746;6.304;2024-01-30T04:55:37;5.80;99.90
59556;DHT22;45374;52.746;6.304;2024-01-30T04:58:03;5.80;99.90
59556;DHT22;45374;52.746;6.304;2024-01-30T05:00:29;5.80;99.90
59556;DHT22;45374;52.746;6.304;2024-01-30T05:02:57;5.80;99.90
59556;DHT22;45374;52.746;6.304;2024-01-30T05:05:23;5.90;99.90
59556;DHT22;45374;52.746;6.304;2024-01-30T05:07:49;5.90;99.90
59556;DHT22;45374;52.746;6.304;2024-01-30T05:10:14;6.00;99.90
59556;DHT22;45374;52.746;6.304;2024-01-30T05:12:40;6.00;99.90
59556;DHT22;45374;52.746;6.304;2024-01-30T05:15:06;6.00;99.90
59556;DHT22;45374;52.746;6.304;2024-01-30T05:17:32;6.00;99.90
59556;DHT22;45374;52.746;6.304;2024-01-30T05:19:58;5.90;99.90
59556;DHT22;45374;52.746;6.304;2024-01-30T05:22:24;6.00;99.90
59556;DHT22;45374;52.746;6.304;2024-01-30T05:24:49;5.90;99.90
59556;DHT22;45374;52.746;6.304;2024-01-30T05:27:15;5.90;99.90
59556;DHT22;45374;52.746;6.304;2024-01-30T05:29:40;5.90;99.90
59556;DHT22;45374;52.746;6.304;2024-01-30T05:32:06;6.00;99.90
59556;DHT22;45374;52.746;6.304;2024-01-30T05:34:32;6.00;99.90
59556;DHT22;45374;52.746;6.304;2024-01-30T05:36:58;6.00;99.90
59556;DHT22;45374;52.746;6.304;2024-01-30T05:39:23;6.00;99.90
59556;DHT22;45374;52.746;6.304;2024-01-30T05:41:49;6.00;99.90
59556;DHT22;45374;52.746;6.304;2024-01-30T05:44:15;6.00;99.90
59556;DHT22;45374;52.746;6.304;2024-01-30T05:46:40;6.00;99.90
59556;DHT22;45374;52.746;6.304;2024-01-30T05:49:06;6.10;99.90
59556;DHT22;45374;52.746;6.304;2024-01-30T05:51:31;6.00;99.90
59556;DHT22;45374;52.746;6.304;2024-01-30T05:53:57;6.10;99.90
59556;DHT22;45374;52.746;6.304;2024-01-30T05:56:22;6.00;99.90
59556;DHT22;45374;52.746;6.304;2024-01-30T05:58:48;6.00;99.90
59556;DHT22;45374;52.746;6.304;2024-01-30T06:01:15;6.10;99.90
59556;DHT22;45374;52.746;6.304;2024-01-30T06:03:41;6.10;99.90
59556;DHT22;45374;52.746;6.304;2024-01-30T06:06:08;6.10;99.90
59556;DHT22;45374;52.746;6.304;2024-01-30T06:08:34;6.10;99.90
59556;DHT22;45374;52.746;6.304;2024-01-30T06:11:00;6.10;99.90
59556;DHT22;45374;52.746;6.304;2024-01-30T06:13:26;6.10;99.90
59556;DHT22;45374;52.746;6.304;2024-01-30T06:15:52;6.10;99.90
59556;DHT22;45374;52.746;6.304;2024-01-30T06:18:18;6.20;99.90
59556;DHT22;45374;52.746;6.304;2024-01-30T06:20:43;6.20;99.90
59556;DHT22;45374;52.746;6.304;2024-01-30T06:23:09;6.30;99.90
59556;DHT22;45374;52.746;6.304;2024-01-30T06:25:34;6.30;99.90
59556;DHT22;45374;52.746;6.304;2024-01-30T06:28:00;6.30;99.90
59556;DHT22;45374;52.746;6.304;2024-01-30T06:30:25;6.40;99.90
59556;DHT22;45374;52.746;6.304;2024-01-30T06:32:51;6.40;99.90
59556;DHT22;45374;52.746;6.304;2024-01-30T06:35:17;6.40;99.90
59556;DHT22;45374;52.746;6.304;2024-01-30T06:37:43;6.50;99.90
59556;DHT22;45374;52.746;6.304;2024-01-30T06:40:09;6.60;99.90
59556;DHT22;45374;52.746;6.304;2024-01-30T06:42:34;6.50;99.90
59556;DHT22;45374;52.746;6.304;2024-01-30T06:45:00;6.60;99.90
59556;DHT22;45374;52.746;6.304;2024-01-30T06:47:26;6.60;99.90
59556;DHT22;45374;52.746;6.304;2024-01-30T06:49:51;6.60;99.90
59556;DHT22;45374;52.746;6.304;2024-01-30T06:52:17;6.70;99.90
59556;DHT22;45374;52.746;6.304;2024-01-30T06:54:43;6.60;99.90
59556;DHT22;45374;52.746;6.304;2024-01-30T06:57:08;6.70;99.90
59556;DHT22;45374;52.746;6.304;2024-01-30T06:59:37;6.70;99.90
59556;DHT22;45374;52.746;6.304;2024-01-30T07:02:09;6.70;99.90
59556;DHT22;45374;52.746;6.304;2024-01-30T07:04:34;6.80;99.90
59556;DHT22;45374;52.746;6.304;2024-01-30T07:07:00;6.80;99.90
59556;DHT22;45374;52.746;6.304;2024-01-30T07:09:25;6.80;99.90
59556;DHT22;45374;52.746;6.304;2024-01-30T07:11:51;6.90;99.90
59556;DHT22;45374;52.746;6.304;2024-01-30T07:14:18;6.90;99.90
59556;DHT22;45374;52.746;6.304;2024-01-30T07:16:43;6.90;99.90
59556;DHT22;45374;52.746;6.304;2024-01-30T07:19:09;6.90;99.90
59556;DHT22;45374;52.746;6.304;2024-01-30T07:21:34;7.00;99.90
59556;DHT22;45374;52.746;6.304;2024-01-30T07:24:00;6.90;99.90
59556;DHT22;45374;52.746;6.304;2024-01-30T07:26:26;7.00;99.90
59556;DHT22;45374;52.746;6.304;2024-01-30T07:28:51;7.00;99.90
59556;DHT22;45374;52.746;6.304;2024-01-30T07:31:17;7.00;99.90
59556;DHT22;45374;52.746;6.304;2024-01-30T07:33:42;7.00;99.90
59556;DHT22;45374;52.746;6.304;2024-01-30T07:36:08;7.00;99.90
59556;DHT22;45374;52.746;6.304;2024-01-30T07:38:34;7.00;99.90
59556;DHT22;45374;52.746;6.304;2024-01-30T07:41:00;7.00;99.90
59556;DHT22;45374;52.746;6.304;2024-01-30T07:43:25;7.10;99.90
59556;DHT22;45374;52.746;6.304;2024-01-30T07:45:51;7.10;99.90
59556;DHT22;45374;52.746;6.304;2024-01-30T07:48:16;7.10;99.90
59556;DHT22;45374;52.746;6.304;2024-01-30T07:50:42;7.10;99.90
59556;DHT22;45374;52.746;6.304;2024-01-30T07:53:08;7.20;99.90
59556;DHT22;45374;52.746;6.304;2024-01-30T07:55:33;7.20;99.90
59556;DHT22;45374;52.746;6.304;2024-01-30T07:57:59;7.20;99.90
59556;DHT22;45374;52.746;6.304;2024-01-30T08:00:25;7.30;99.90
59556;DHT22;45374;52.746;6.304;2024-01-30T08:02:51;7.30;99.90
59556;DHT22;45374;52.746;6.304;2024-01-30T08:05:19;7.30;99.90
59556;DHT22;45374;52.746;6.304;2024-01-30T08:07:47;7.40;99.90
59556;DHT22;45374;52.746;6.304;2024-01-30T08:10:13;7.40;99.90
59556;DHT22;45374;52.746;6.304;2024-01-30T08:12:39;7.40;99.90
59556;DHT22;45374;52.746;6.304;2024-01-30T08:15:05;7.40;99.90
59556;DHT22;45374;52.746;6.304;2024-01-30T08:17:31;7.50;99.90
59556;DHT22;45374;52.746;6.304;2024-01-30T08:19:56;7.50;99.90
59556;DHT22;45374;52.746;6.304;2024-01-30T08:22:22;7.60;99.90
59556;DHT22;45374;52.746;6.304;2024-01-30T08:24:47;7.70;99.90
59556;DHT22;45374;52.746;6.304;2024-01-30T08:27:13;7.70;99.90
59556;DHT22;45374;52.746;6.304;2024-01-30T08:29:39;7.70;99.90
59556;DHT22;45374;52.746;6.304;2024-01-30T08:32:05;7.70;99.90
59556;DHT22;45374;52.746;6.304;2024-01-30T08:34:31;7.80;99.90
59556;DHT22;45374;52.746;6.304;2024-01-30T08:36:57;7.90;99.90
59556;DHT22;45374;52.746;6.304;2024-01-30T08:39:22;8.00;99.90
59556;DHT22;45374;52.746;6.304;2024-01-30T08:41:48;8.00;99.90
59556;DHT22;45374;52.746;6.304;2024-01-30T08:44:13;8.10;99.90
59556;DHT22;45374;52.746;6.304;2024-01-30T08:46:39;8.10;99.90
59556;DHT22;45374;52.746;6.304;2024-01-30T08:49:05;8.10;99.90
59556;DHT22;45374;52.746;6.304;2024-01-30T08:51:30;8.10;99.90
59556;DHT22;45374;52.746;6.304;2024-01-30T08:53:56;8.20;99.90
59556;DHT22;45374;52.746;6.304;2024-01-30T08:56:22;8.20;99.90
59556;DHT22;45374;52.746;6.304;2024-01-30T08:58:47;8.30;99.90
59556;DHT22;45374;52.746;6.304;2024-01-30T09:01:14;8.40;99.90
59556;DHT22;45374;52.746;6.304;2024-01-30T09:03:39;8.50;99.90
59556;DHT22;45374;52.746;6.304;2024-01-30T09:06:10;8.60;99.90
59556;DHT22;45374;52.746;6.304;2024-01-30T09:08:35;8.60;99.90
59556;DHT22;45374;52.746;6.304;2024-01-30T09:11:02;8.70;99.90
59556;DHT22;45374;52.746;6.304;2024-01-30T09:13:33;8.70;99.90
59556;DHT22;45374;52.746;6.304;2024-01-30T09:15:59;8.80;99.90
59556;DHT22;45374;52.746;6.304;2024-01-30T09:18:24;8.90;99.90
59556;DHT22;45374;52.746;6.304;2024-01-30T09:20:50;8.90;99.90
59556;DHT22;45374;52.746;6.304;2024-01-30T09:23:15;9.00;99.90
59556;DHT22;45374;52.746;6.304;2024-01-30T09:25:42;9.00;99.90
59556;DHT22;45374;52.746;6.304;2024-01-30T09:28:08;9.00;99.90
59556;DHT22;45374;52.746;6.304;2024-01-30T09:30:34;9.10;99.90
59556;DHT22;45374;52.746;6.304;2024-01-30T09:32:59;9.10;99.90
59556;DHT22;45374;52.746;6.304;2024-01-30T09:35:25;9.20;99.90
59556;DHT22;45374;52.746;6.304;2024-01-30T09:37:50;9.20;99.90
59556;DHT22;45374;52.746;6.304;2024-01-30T09:40:17;9.20;99.90
59556;DHT22;45374;52.746;6.304;2024-01-30T09:42:46;9.30;99.90
59556;DHT22;45374;52.746;6.304;2024-01-30T09:45:14;9.30;99.90
59556;DHT22;45374;52.746;6.304;2024-01-30T09:47:41;9.30;99.90
59556;DHT22;45374;52.746;6.304;2024-01-30T09:50:11;9.40;99.90
59556;DHT22;45374;52.746;6.304;2024-01-30T09:52:37;9.30;99.90
59556;DHT22;45374;52.746;6.304;2024-01-30T09:55:03;9.40;99.90
59556;DHT22;45374;52.746;6.304;2024-01-30T09:57:29;9.50;99.90
59556;DHT22;45374;52.746;6.304;2024-01-30T09:59:55;9.50;99.90
59556;DHT22;45374;52.746;6.304;2024-01-30T10:02:21;9.50;99.90
59556;DHT22;45374;52.746;6.304;2024-01-30T10:04:48;9.60;99.90
59556;DHT22;45374;52.746;6.304;2024-01-30T10:07:14;9.60;99.90
59556;DHT22;45374;52.746;6.304;2024-01-30T10:09:40;9.70;99.90
59556;DHT22;45374;52.746;6.304;2024-01-30T10:12:06;9.80;99.90
59556;DHT22;45374;52.746;6.304;2024-01-30T10:14:32;9.80;99.90
59556;DHT22;45374;52.746;6.304;2024-01-30T10:16:58;9.90;99.90
59556;DHT22;45374;52.746;6.304;2024-01-30T10:19:23;10.00;99.90
59556;DHT22;45374;52.746;6.304;2024-01-30T10:21:49;10.10;99.90
59556;DHT22;45374;52.746;6.304;2024-01-30T10:24:14;10.10;99.90
59556;DHT22;45374;52.746;6.304;2024-01-30T10:26:43;10.10;99.90
59556;DHT22;45374;52.746;6.304;2024-01-30T10:29:08;10.20;99.90
59556;DHT22;45374;52.746;6.304;2024-01-30T10:31:34;10.20;99.90
59556;DHT22;45374;52.746;6.304;2024-01-30T10:33:59;10.10;99.90
59556;DHT22;45374;52.746;6.304;2024-01-30T10:36:28;10.10;99.90
59556;DHT22;45374;52.746;6.304;2024-01-30T10:38:56;10.10;99.90
59556;DHT22;45374;52.746;6.304;2024-01-30T10:41:26;10.10;99.90
59556;DHT22;45374;52.746;6.304;2024-01-30T10:44:10;10.10;99.90
59556;DHT22;45374;52.746;6.304;2024-01-30T10:46:38;10.10;99.90
59556;DHT22;45374;52.746;6.304;2024-01-30T10:49:06;10.20;99.90
59556;DHT22;45374;52.746;6.304;2024-01-30T10:51:32;10.20;99.90
59556;DHT22;45374;52.746;6.304;2024-01-30T10:54:00;10.30;99.90
59556;DHT22;45374;52.746;6.304;2024-01-30T10:56:26;10.40;99.90
59556;DHT22;45374;52.746;6.304;2024-01-30T10:58:53;10.50;99.90
59556;DHT22;45374;52.746;6.304;2024-01-30T11:01:20;10.60;99.90
59556;DHT22;45374;52.746;6.304;2024-01-30T11:03:50;10.60;99.90
59556;DHT22;45374;52.746;6.304;2024-01-30T11:06:16;10.60;99.90
59556;DHT22;45374;52.746;6.304;2024-01-30T11:08:47;10.60;99.90
59556;DHT22;45374;52.746;6.304;2024-01-30T11:11:25;10.70;99.90
59556;DHT22;45374;52.746;6.304;2024-01-30T11:13:50;10.70;99.90
59556;DHT22;45374;52.746;6.304;2024-01-30T11:16:17;10.60;99.90
59556;DHT22;45374;52.746;6.304;2024-01-30T11:18:42;10.70;99.90
59556;DHT22;45374;52.746;6.304;2024-01-30T11:21:08;10.70;99.90
59556;DHT22;45374;52.746;6.304;2024-01-30T11:23:34;10.70;99.90
59556;DHT22;45374;52.746;6.304;2024-01-30T11:26:00;10.60;99.90
59556;DHT22;45374;52.746;6.304;2024-01-30T11:28:32;10.70;99.90
59556;DHT22;45374;52.746;6.304;2024-01-30T11:31:05;10.70;99.90
59556;DHT22;45374;52.746;6.304;2024-01-30T11:33:32;10.70;99.90
59556;DHT22;45374;52.746;6.304;2024-01-30T11:36:00;10.70;99.90
59556;DHT22;45374;52.746;6.304;2024-01-30T11:38:28;10.90;99.90
59556;DHT22;45374;52.746;6.304;2024-01-30T11:40:55;10.90;99.90
59556;DHT22;45374;52.746;6.304;2024-01-30T11:43:22;10.90;99.90
59556;DHT22;45374;52.746;6.304;2024-01-30T11:45:47;11.10;99.90
59556;DHT22;45374;52.746;6.304;2024-01-30T11:48:13;11.20;99.90
59556;DHT22;45374;52.746;6.304;2024-01-30T11:50:41;11.30;99.90
59556;DHT22;45374;52.746;6.304;2024-01-30T11:53:07;11.20;99.90
59556;DHT22;45374;52.746;6.304;2024-01-30T11:55:33;11.20;99.90
59556;DHT22;45374;52.746;6.304;2024-01-30T11:57:59;11.20;99.90
59556;DHT22;45374;52.746;6.304;2024-01-30T12:00:25;11.20;99.90
59556;DHT22;45374;52.746;6.304;2024-01-30T12:02:54;11.20;99.90
59556;DHT22;45374;52.746;6.304;2024-01-30T12:05:24;11.10;99.90
59556;DHT22;45374;52.746;6.304;2024-01-30T12:07:51;10.80;99.90
59556;DHT22;45374;52.746;6.304;2024-01-30T12:10:17;10.70;99.90
59556;DHT22;45374;52.746;6.304;2024-01-30T12:12:47;10.50;99.90
59556;DHT22;45374;52.746;6.304;2024-01-30T12:15:13;10.50;99.90
59556;DHT22;45374;52.746;6.304;2024-01-30T12:17:39;10.40;99.90
59556;DHT22;45374;52.746;6.304;2024-01-30T12:20:13;10.40;99.90
59556;DHT22;45374;52.746;6.304;2024-01-30T12:22:48;10.50;99.90
59556;DHT22;45374;52.746;6.304;2024-01-30T12:25:15;10.50;99.90
59556;DHT22;45374;52.746;6.304;2024-01-30T12:27:49;10.40;99.90
59556;DHT22;45374;52.746;6.304;2024-01-30T12:30:19;10.40;99.90
59556;DHT22;45374;52.746;6.304;2024-01-30T12:32:46;10.30;99.90
59556;DHT22;45374;52.746;6.304;2024-01-30T12:35:18;10.20;99.90
59556;DHT22;45374;52.746;6.304;2024-01-30T12:37:45;10.20;99.90
59556;DHT22;45374;52.746;6.304;2024-01-30T12:40:15;10.20;99.90
59556;DHT22;45374;52.746;6.304;2024-01-30T12:42:45;10.20;99.90
59556;DHT22;45374;52.746;6.304;2024-01-30T12:45:14;10.10;99.90
59556;DHT22;45374;52.746;6.304;2024-01-30T12:47:41;10.10;99.90
59556;DHT22;45374;52.746;6.304;2024-01-30T12:50:07;10.10;99.90
59556;DHT22;45374;52.746;6.304;2024-01-30T12:52:32;10.10;99.90
59556;DHT22;45374;52.746;6.304;2024-01-30T12:54:58;10.00;99.90
59556;DHT22;45374;52.746;6.304;2024-01-30T12:57:24;10.10;99.90
59556;DHT22;45374;52.746;6.304;2024-01-30T12:59:49;10.00;99.90
59556;DHT22;45374;52.746;6.304;2024-01-30T13:02:15;9.90;99.90
59556;DHT22;45374;52.746;6.304;2024-01-30T13:04:42;9.80;99.90
59556;DHT22;45374;52.746;6.304;2024-01-30T13:07:08;9.70;99.90
59556;DHT22;45374;52.746;6.304;2024-01-30T13:09:33;9.60;99.90
59556;DHT22;45374;52.746;6.304;2024-01-30T13:12:00;9.60;99.90
59556;DHT22;45374;52.746;6.304;2024-01-30T13:14:26;9.60;99.90
59556;DHT22;45374;52.746;6.304;2024-01-30T13:16:52;9.60;99.90
59556;DHT22;45374;52.746;6.304;2024-01-30T13:19:18;9.60;99.90
59556;DHT22;45374;52.746;6.304;2024-01-30T13:21:46;9.50;99.90
59556;DHT22;45374;52.746;6.304;2024-01-30T13:24:13;9.40;99.90
59556;DHT22;45374;52.746;6.304;2024-01-30T13:26:38;9.40;99.90
59556;DHT22;45374;52.746;6.304;2024-01-30T13:29:04;9.40;99.90
59556;DHT22;45374;52.746;6.304;2024-01-30T13:31:30;9.40;99.90
59556;DHT22;45374;52.746;6.304;2024-01-30T13:33:56;9.50;99.90
59556;DHT22;45374;52.746;6.304;2024-01-30T13:36:21;9.60;99.90
59556;DHT22;45374;52.746;6.304;2024-01-30T13:38:47;9.60;99.90
59556;DHT22;45374;52.746;6.304;2024-01-30T13:41:13;9.70;99.90
59556;DHT22;45374;52.746;6.304;2024-01-30T13:43:39;9.60;99.90
59556;DHT22;45374;52.746;6.304;2024-01-30T13:46:04;9.60;99.90
59556;DHT22;45374;52.746;6.304;2024-01-30T13:48:31;9.60;99.90
59556;DHT22;45374;52.746;6.304;2024-01-30T13:50:56;9.70;99.90
59556;DHT22;45374;52.746;6.304;2024-01-30T13:53:26;9.70;99.90
59556;DHT22;45374;52.746;6.304;2024-01-30T13:55:52;9.70;99.90
59556;DHT22;45374;52.746;6.304;2024-01-30T13:58:17;9.60;99.90
59556;DHT22;45374;52.746;6.304;2024-01-30T14:00:43;9.60;99.90
59556;DHT22;45374;52.746;6.304;2024-01-30T14:03:09;9.60;99.90
59556;DHT22;45374;52.746;6.304;2024-01-30T14:05:35;9.50;99.90
59556;DHT22;45374;52.746;6.304;2024-01-30T14:08:01;9.40;99.90
59556;DHT22;45374;52.746;6.304;2024-01-30T14:10:27;9.40;99.90
59556;DHT22;45374;52.746;6.304;2024-01-30T14:12:52;9.30;99.90
59556;DHT22;45374;52.746;6.304;2024-01-30T14:15:18;9.20;99.90
59556;DHT22;45374;52.746;6.304;2024-01-30T14:17:44;9.20;99.90
59556;DHT22;45374;52.746;6.304;2024-01-30T14:20:16;9.20;99.90
59556;DHT22;45374;52.746;6.304;2024-01-30T14:22:44;9.10;99.90
59556;DHT22;45374;52.746;6.304;2024-01-30T14:25:10;9.20;99.90
59556;DHT22;45374;52.746;6.304;2024-01-30T14:27:36;9.20;99.90
59556;DHT22;45374;52.746;6.304;2024-01-30T14:30:02;9.10;99.90
59556;DHT22;45374;52.746;6.304;2024-01-30T14:32:28;9.10;99.90
59556;DHT22;45374;52.746;6.304;2024-01-30T14:34:54;9.10;99.90
59556;DHT22;45374;52.746;6.304;2024-01-30T14:37:20;9.10;99.90
59556;DHT22;45374;52.746;6.304;2024-01-30T14:39:47;9.10;99.90
59556;DHT22;45374;52.746;6.304;2024-01-30T14:42:13;9.10;99.90
59556;DHT22;45374;52.746;6.304;2024-01-30T14:44:39;9.00;99.90
59556;DHT22;45374;52.746;6.304;2024-01-30T14:47:05;9.00;99.90
59556;DHT22;45374;52.746;6.304;2024-01-30T14:49:31;9.00;99.90
59556;DHT22;45374;52.746;6.304;2024-01-30T14:51:56;8.90;99.90
59556;DHT22;45374;52.746;6.304;2024-01-30T14:54:23;8.90;99.90
59556;DHT22;45374;52.746;6.304;2024-01-30T14:56:50;8.80;99.90
59556;DHT22;45374;52.746;6.304;2024-01-30T14:59:16;8.70;99.90
59556;DHT22;45374;52.746;6.304;2024-01-30T15:01:41;8.70;99.90
59556;DHT22;45374;52.746;6.304;2024-01-30T15:04:08;8.60;99.90
59556;DHT22;45374;52.746;6.304;2024-01-30T15:06:34;8.60;99.90
59556;DHT22;45374;52.746;6.304;2024-01-30T15:08:59;8.50;99.90
59556;DHT22;45374;52.746;6.304;2024-01-30T15:11:25;8.50;99.90
59556;DHT22;45374;52.746;6.304;2024-01-30T15:13:50;8.50;99.90
59556;DHT22;45374;52.746;6.304;2024-01-30T15:16:16;8.40;99.90
59556;DHT22;45374;52.746;6.304;2024-01-30T15:18:41;8.30;99.90
59556;DHT22;45374;52.746;6.304;2024-01-30T15:21:07;8.40;99.90
59556;DHT22;45374;52.746;6.304;2024-01-30T15:23:34;8.40;99.90
59556;DHT22;45374;52.746;6.304;2024-01-30T15:25:59;8.30;99.90
59556;DHT22;45374;52.746;6.304;2024-01-30T15:28:38;8.20;99.90
59556;DHT22;45374;52.746;6.304;2024-01-30T15:31:05;8.30;99.90
59556;DHT22;45374;52.746;6.304;2024-01-30T15:33:32;8.40;99.90
59556;DHT22;45374;52.746;6.304;2024-01-30T15:35:58;8.30;99.90